sensor_id;sensor_type;location;lat;lon;timestamp;P1;durP1;ratioP1;P2;durP2;ratioP2
81231;SDS011;70703;55.652;37.710;2023-06-22T00:00:07;35.85;;;10.05;;
81231;SDS011;70703;55.652;37.710;2023-06-22T00:00:22;35.40;;;9.75;;
81231;SDS011;70703;55.652;37.710;2023-06-22T00:00:33;32.83;;;9.45;;
81231;SDS011;70703;55.652;37.710;2023-06-22T00:00:44;27.83;;;9.07;;
81231;SDS011;70703;55.652;37.710;2023-06-22T00:00:55;27.17;;;8.98;;
81231;SDS011;70703;55.652;37.710;2023-06-22T00:01:07;29.05;;;9.60;;
81231;SDS011;70703;55.652;37.710;2023-06-22T00:01:18;27.13;;;10.07;;
81231;SDS011;70703;55.652;37.710;2023-06-22T00:01:30;26.80;;;10.32;;
81231;SDS011;70703;55.652;37.710;2023-06-22T00:01:42;25.23;;;9.85;;
81231;SDS011;70703;55.652;37.710;2023-06-22T00:01:53;23.38;;;9.45;;
81231;SDS011;70703;55.652;37.710;2023-06-22T00:02:04;24.25;;;9.38;;
81231;SDS011;70703;55.652;37.710;2023-06-22T00:02:16;25.08;;;9.43;;
81231;SDS011;70703;55.652;37.710;2023-06-22T00:02:27;25.48;;;9.35;;
81231;SDS011;70703;55.652;37.710;2023-06-22T00:02:38;27.95;;;9.48;;
81231;SDS011;70703;55.652;37.710;2023-06-22T00:02:49;27.45;;;9.73;;
81231;SDS011;70703;55.652;37.710;2023-06-22T00:03:00;29.08;;;9.60;;
81231;SDS011;70703;55.652;37.710;2023-06-22T00:03:12;24.42;;;9.35;;
81231;SDS011;70703;55.652;37.710;2023-06-22T00:03:24;26.25;;;9.63;;
81231;SDS011;70703;55.652;37.710;2023-06-22T00:03:36;29.63;;;10.07;;
81231;SDS011;70703;55.652;37.710;2023-06-22T00:03:47;29.85;;;10.27;;
81231;SDS011;70703;55.652;37.710;2023-06-22T00:03:58;29.02;;;9.80;;
81231;SDS011;70703;55.652;37.710;2023-06-22T00:04:09;29.98;;;9.80;;
81231;SDS011;70703;55.652;37.710;2023-06-22T00:04:20;28.00;;;9.45;;
81231;SDS011;70703;55.652;37.710;2023-06-22T00:04:31;25.65;;;9.23;;
81231;SDS011;70703;55.652;37.710;2023-06-22T00:04:43;22.33;;;9.05;;
81231;SDS011;70703;55.652;37.710;2023-06-22T00:04:54;28.10;;;9.43;;
81231;SDS011;70703;55.652;37.710;2023-06-22T00:05:06;28.60;;;9.45;;
81231;SDS011;70703;55.652;37.710;2023-06-22T00:05:17;27.85;;;9.20;;
81231;SDS011;70703;55.652;37.710;2023-06-22T00:05:28;26.50;;;9.55;;
81231;SDS011;70703;55.652;37.710;2023-06-22T00:05:39;26.95;;;9.60;;
81231;SDS011;70703;55.652;37.710;2023-06-22T00:05:51;25.85;;;9.80;;
81231;SDS011;70703;55.652;37.710;2023-06-22T00:06:04;28.30;;;9.68;;
81231;SDS011;70703;55.652;37.710;2023-06-22T00:06:15;28.73;;;10.15;;
81231;SDS011;70703;55.652;37.710;2023-06-22T00:06:26;26.95;;;10.20;;
81231;SDS011;70703;55.652;37.710;2023-06-22T00:06:37;28.73;;;10.15;;
81231;SDS011;70703;55.652;37.710;2023-06-22T00:06:48;28.30;;;9.73;;
81231;SDS011;70703;55.652;37.710;2023-06-22T00:06:59;32.38;;;9.65;;
81231;SDS011;70703;55.652;37.710;2023-06-22T00:07:10;32.03;;;9.40;;
81231;SDS011;70703;55.652;37.710;2023-06-22T00:07:21;28.17;;;9.63;;
81231;SDS011;70703;55.652;37.710;2023-06-22T00:07:34;25.77;;;10.02;;
81231;SDS011;70703;55.652;37.710;2023-06-22T00:07:45;25.45;;;9.88;;
81231;SDS011;70703;55.652;37.710;2023-06-22T00:07:56;24.42;;;9.70;;
81231;SDS011;70703;55.652;37.710;2023-06-22T00:08:07;25.60;;;9.68;;
81231;SDS011;70703;55.652;37.710;2023-06-22T00:08:18;27.65;;;9.88;;
81231;SDS011;70703;55.652;37.710;2023-06-22T00:08:31;29.05;;;10.00;;
81231;SDS011;70703;55.652;37.710;2023-06-22T00:08:42;29.55;;;9.98;;
81231;SDS011;70703;55.652;37.710;2023-06-22T00:08:54;28.98;;;10.05;;
81231;SDS011;70703;55.652;37.710;2023-06-22T00:09:05;25.27;;;9.85;;
81231;SDS011;70703;55.652;37.710;2023-06-22T00:09:17;26.40;;;9.95;;
81231;SDS011;70703;55.652;37.710;2023-06-22T00:09:28;28.05;;;9.75;;
81231;SDS011;70703;55.652;37.710;2023-06-22T00:09:39;27.80;;;9.32;;
81231;SDS011;70703;55.652;37.710;2023-06-22T00:09:50;29.30;;;9.35;;
81231;SDS011;70703;55.652;37.710;2023-06-22T00:10:01;28.75;;;9.70;;
81231;SDS011;70703;55.652;37.710;2023-06-22T00:10:12;26.95;;;9.75;;
81231;SDS011;70703;55.652;37.710;2023-06-22T00:10:24;26.00;;;9.85;;
81231;SDS011;70703;55.652;37.710;2023-06-22T00:10:36;28.67;;;9.93;;
81231;SDS011;70703;55.652;37.710;2023-06-22T00:10:47;28.42;;;10.07;;
81231;SDS011;70703;55.652;37.710;2023-06-22T00:10:58;29.73;;;10.20;;
81231;SDS011;70703;55.652;37.710;2023-06-22T00:11:09;30.73;;;10.05;;
81231;SDS011;70703;55.652;37.710;2023-06-22T00:11:20;33.20;;;9.40;;
81231;SDS011;70703;55.652;37.710;2023-06-22T00:11:31;30.88;;;9.15;;
81231;SDS011;70703;55.652;37.710;2023-06-22T00:11:43;27.83;;;9.13;;
81231;SDS011;70703;55.652;37.710;2023-06-22T00:11:55;28.63;;;9.73;;
81231;SDS011;70703;55.652;37.710;2023-06-22T00:12:07;29.75;;;9.52;;
81231;SDS011;70703;55.652;37.710;2023-06-22T00:12:18;28.58;;;9.40;;
81231;SDS011;70703;55.652;37.710;2023-06-22T00:12:30;27.45;;;9.32;;
81231;SDS011;70703;55.652;37.710;2023-06-22T00:12:42;25.85;;;9.68;;
81231;SDS011;70703;55.652;37.710;2023-06-22T00:12:53;25.48;;;10.32;;
81231;SDS011;70703;55.652;37.710;2023-06-22T00:13:04;26.42;;;10.27;;
81231;SDS011;70703;55.652;37.710;2023-06-22T00:13:17;27.00;;;9.90;;
81231;SDS011;70703;55.652;37.710;2023-06-22T00:13:28;28.60;;;9.60;;
81231;SDS011;70703;55.652;37.710;2023-06-22T00:13:39;33.17;;;9.95;;
81231;SDS011;70703;55.652;37.710;2023-06-22T00:13:50;33.25;;;10.25;;
81231;SDS011;70703;55.652;37.710;2023-06-22T00:14:01;32.20;;;10.20;;
81231;SDS011;70703;55.652;37.710;2023-06-22T00:14:12;25.63;;;10.07;;
81231;SDS011;70703;55.652;37.710;2023-06-22T00:14:23;25.13;;;9.65;;
81231;SDS011;70703;55.652;37.710;2023-06-22T00:14:35;25.30;;;9.50;;
81231;SDS011;70703;55.652;37.710;2023-06-22T00:14:46;30.52;;;9.55;;
81231;SDS011;70703;55.652;37.710;2023-06-22T00:14:58;32.70;;;9.98;;
81231;SDS011;70703;55.652;37.710;2023-06-22T00:15:09;32.08;;;9.88;;
81231;SDS011;70703;55.652;37.710;2023-06-22T00:15:20;26.27;;;9.70;;
81231;SDS011;70703;55.652;37.710;2023-06-22T00:15:31;26.48;;;9.40;;
81231;SDS011;70703;55.652;37.710;2023-06-22T00:15:42;27.65;;;9.50;;
81231;SDS011;70703;55.652;37.710;2023-06-22T00:15:55;26.13;;;9.25;;
81231;SDS011;70703;55.652;37.710;2023-06-22T00:16:06;23.63;;;9.23;;
81231;SDS011;70703;55.652;37.710;2023-06-22T00:16:17;26.38;;;9.73;;
81231;SDS011;70703;55.652;37.710;2023-06-22T00:16:28;29.83;;;9.90;;
81231;SDS011;70703;55.652;37.710;2023-06-22T00:16:40;31.98;;;9.98;;
81231;SDS011;70703;55.652;37.710;2023-06-22T00:16:53;26.27;;;9.70;;
81231;SDS011;70703;55.652;37.710;2023-06-22T00:17:07;21.67;;;10.00;;
81231;SDS011;70703;55.652;37.710;2023-06-22T00:17:19;24.02;;;9.75;;
81231;SDS011;70703;55.652;37.710;2023-06-22T00:17:30;26.60;;;9.63;;
81231;SDS011;70703;55.652;37.710;2023-06-22T00:17:41;27.77;;;9.75;;
81231;SDS011;70703;55.652;37.710;2023-06-22T00:17:53;29.52;;;10.02;;
81231;SDS011;70703;55.652;37.710;2023-06-22T00:18:04;31.10;;;10.05;;
81231;SDS011;70703;55.652;37.710;2023-06-22T00:18:15;31.90;;;10.35;;
81231;SDS011;70703;55.652;37.710;2023-06-22T00:18:26;24.67;;;10.07;;
81231;SDS011;70703;55.652;37.710;2023-06-22T00:18:38;24.17;;;10.20;;
81231;SDS011;70703;55.652;37.710;2023-06-22T00:18:50;26.85;;;10.20;;
81231;SDS011;70703;55.652;37.710;2023-06-22T00:19:01;29.95;;;10.32;;
81231;SDS011;70703;55.652;37.710;2023-06-22T00:19:14;32.53;;;10.40;;
81231;SDS011;70703;55.652;37.710;2023-06-22T00:19:25;30.88;;;10.20;;
81231;SDS011;70703;55.652;37.710;2023-06-22T00:19:36;31.40;;;9.95;;
81231;SDS011;70703;55.652;37.710;2023-06-22T00:19:50;28.13;;;9.73;;
81231;SDS011;70703;55.652;37.710;2023-06-22T00:20:03;25.65;;;9.75;;
81231;SDS011;70703;55.652;37.710;2023-06-22T00:20:16;26.00;;;9.90;;
81231;SDS011;70703;55.652;37.710;2023-06-22T00:20:29;26.80;;;9.70;;
81231;SDS011;70703;55.652;37.710;2023-06-22T00:20:40;25.23;;;9.45;;
81231;SDS011;70703;55.652;37.710;2023-06-22T00:20:52;26.95;;;9.90;;
81231;SDS011;70703;55.652;37.710;2023-06-22T00:21:06;31.15;;;10.35;;
81231;SDS011;70703;55.652;37.710;2023-06-22T00:21:18;29.90;;;10.02;;
81231;SDS011;70703;55.652;37.710;2023-06-22T00:21:31;26.58;;;9.68;;
81231;SDS011;70703;55.652;37.710;2023-06-22T00:21:42;26.35;;;9.68;;
81231;SDS011;70703;55.652;37.710;2023-06-22T00:21:57;29.92;;;9.95;;
81231;SDS011;70703;55.652;37.710;2023-06-22T00:22:10;28.92;;;9.75;;
81231;SDS011;70703;55.652;37.710;2023-06-22T00:22:21;23.95;;;9.52;;
81231;SDS011;70703;55.652;37.710;2023-06-22T00:22:38;24.55;;;9.82;;
81231;SDS011;70703;55.652;37.710;2023-06-22T00:22:49;26.42;;;10.20;;
81231;SDS011;70703;55.652;37.710;2023-06-22T00:23:01;28.55;;;10.38;;
81231;SDS011;70703;55.652;37.710;2023-06-22T00:23:16;26.30;;;10.15;;
81231;SDS011;70703;55.652;37.710;2023-06-22T00:23:28;25.88;;;9.95;;
81231;SDS011;70703;55.652;37.710;2023-06-22T00:23:40;27.13;;;10.20;;
81231;SDS011;70703;55.652;37.710;2023-06-22T00:23:51;28.52;;;9.90;;
81231;SDS011;70703;55.652;37.710;2023-06-22T00:24:03;29.42;;;10.35;;
81231;SDS011;70703;55.652;37.710;2023-06-22T00:24:14;30.45;;;10.60;;
81231;SDS011;70703;55.652;37.710;2023-06-22T00:24:26;29.08;;;10.65;;
81231;SDS011;70703;55.652;37.710;2023-06-22T00:24:37;28.13;;;10.10;;
81231;SDS011;70703;55.652;37.710;2023-06-22T00:24:48;26.45;;;9.60;;
81231;SDS011;70703;55.652;37.710;2023-06-22T00:25:00;23.45;;;9.82;;
81231;SDS011;70703;55.652;37.710;2023-06-22T00:25:11;26.45;;;10.07;;
81231;SDS011;70703;55.652;37.710;2023-06-22T00:25:22;28.23;;;10.30;;
81231;SDS011;70703;55.652;37.710;2023-06-22T00:25:34;27.48;;;9.85;;
81231;SDS011;70703;55.652;37.710;2023-06-22T00:25:45;26.77;;;9.50;;
81231;SDS011;70703;55.652;37.710;2023-06-22T00:25:57;28.10;;;9.45;;
81231;SDS011;70703;55.652;37.710;2023-06-22T00:26:08;33.03;;;9.60;;
81231;SDS011;70703;55.652;37.710;2023-06-22T00:26:19;31.35;;;9.63;;
81231;SDS011;70703;55.652;37.710;2023-06-22T00:26:31;29.10;;;9.52;;
81231;SDS011;70703;55.652;37.710;2023-06-22T00:26:42;28.60;;;10.20;;
81231;SDS011;70703;55.652;37.710;2023-06-22T00:26:54;31.65;;;10.23;;
81231;SDS011;70703;55.652;37.710;2023-06-22T00:27:05;28.58;;;10.10;;
81231;SDS011;70703;55.652;37.710;2023-06-22T00:27:17;27.50;;;9.80;;
81231;SDS011;70703;55.652;37.710;2023-06-22T00:27:28;27.20;;;9.90;;
81231;SDS011;70703;55.652;37.710;2023-06-22T00:27:39;27.52;;;9.75;;
81231;SDS011;70703;55.652;37.710;2023-06-22T00:27:50;27.00;;;9.52;;
81231;SDS011;70703;55.652;37.710;2023-06-22T00:28:02;26.50;;;9.50;;
81231;SDS011;70703;55.652;37.710;2023-06-22T00:28:14;26.25;;;9.45;;
81231;SDS011;70703;55.652;37.710;2023-06-22T00:28:26;23.33;;;9.45;;
81231;SDS011;70703;55.652;37.710;2023-06-22T00:28:38;22.75;;;9.50;;
81231;SDS011;70703;55.652;37.710;2023-06-22T00:28:49;27.70;;;9.65;;
81231;SDS011;70703;55.652;37.710;2023-06-22T00:29:00;29.45;;;9.85;;
81231;SDS011;70703;55.652;37.710;2023-06-22T00:29:14;28.27;;;9.52;;
81231;SDS011;70703;55.652;37.710;2023-06-22T00:29:25;28.33;;;9.48;;
81231;SDS011;70703;55.652;37.710;2023-06-22T00:29:36;31.23;;;9.80;;
81231;SDS011;70703;55.652;37.710;2023-06-22T00:29:47;29.80;;;10.10;;
81231;SDS011;70703;55.652;37.710;2023-06-22T00:29:59;25.55;;;10.00;;
81231;SDS011;70703;55.652;37.710;2023-06-22T00:30:13;25.77;;;9.88;;
81231;SDS011;70703;55.652;37.710;2023-06-22T00:30:24;24.73;;;9.63;;
81231;SDS011;70703;55.652;37.710;2023-06-22T00:30:35;28.00;;;9.63;;
81231;SDS011;70703;55.652;37.710;2023-06-22T00:30:47;26.90;;;9.68;;
81231;SDS011;70703;55.652;37.710;2023-06-22T00:30:59;25.75;;;9.63;;
81231;SDS011;70703;55.652;37.710;2023-06-22T00:31:11;25.20;;;9.55;;
81231;SDS011;70703;55.652;37.710;2023-06-22T00:31:22;25.13;;;9.40;;
81231;SDS011;70703;55.652;37.710;2023-06-22T00:31:33;25.58;;;9.80;;
81231;SDS011;70703;55.652;37.710;2023-06-22T00:31:44;26.60;;;9.80;;
81231;SDS011;70703;55.652;37.710;2023-06-22T00:31:55;30.70;;;10.30;;
81231;SDS011;70703;55.652;37.710;2023-06-22T00:32:06;29.63;;;10.27;;
81231;SDS011;70703;55.652;37.710;2023-06-22T00:32:18;25.58;;;10.57;;
81231;SDS011;70703;55.652;37.710;2023-06-22T00:32:31;27.38;;;10.82;;
81231;SDS011;70703;55.652;37.710;2023-06-22T00:32:43;26.02;;;10.48;;
81231;SDS011;70703;55.652;37.710;2023-06-22T00:32:55;27.77;;;10.30;;
81231;SDS011;70703;55.652;37.710;2023-06-22T00:33:06;29.10;;;10.15;;
81231;SDS011;70703;55.652;37.710;2023-06-22T00:33:17;25.88;;;9.65;;
81231;SDS011;70703;55.652;37.710;2023-06-22T00:33:29;25.40;;;9.65;;
81231;SDS011;70703;55.652;37.710;2023-06-22T00:33:40;26.42;;;9.82;;
81231;SDS011;70703;55.652;37.710;2023-06-22T00:33:51;31.48;;;10.23;;
81231;SDS011;70703;55.652;37.710;2023-06-22T00:34:02;30.20;;;10.40;;
81231;SDS011;70703;55.652;37.710;2023-06-22T00:34:14;29.15;;;10.05;;
81231;SDS011;70703;55.652;37.710;2023-06-22T00:34:26;31.15;;;9.45;;
81231;SDS011;70703;55.652;37.710;2023-06-22T00:34:37;31.40;;;9.60;;
81231;SDS011;70703;55.652;37.710;2023-06-22T00:34:48;29.60;;;9.52;;
81231;SDS011;70703;55.652;37.710;2023-06-22T00:35:00;25.70;;;9.45;;
81231;SDS011;70703;55.652;37.710;2023-06-22T00:35:14;27.45;;;9.88;;
81231;SDS011;70703;55.652;37.710;2023-06-22T00:35:25;28.17;;;10.00;;
81231;SDS011;70703;55.652;37.710;2023-06-22T00:35:39;31.77;;;10.45;;
81231;SDS011;70703;55.652;37.710;2023-06-22T00:35:52;27.42;;;10.50;;
81231;SDS011;70703;55.652;37.710;2023-06-22T00:36:04;27.70;;;10.52;;
81231;SDS011;70703;55.652;37.710;2023-06-22T00:36:16;25.90;;;10.43;;
81231;SDS011;70703;55.652;37.710;2023-06-22T00:36:28;30.23;;;10.82;;
81231;SDS011;70703;55.652;37.710;2023-06-22T00:36:40;32.88;;;10.63;;
81231;SDS011;70703;55.652;37.710;2023-06-22T00:36:51;32.85;;;10.23;;
81231;SDS011;70703;55.652;37.710;2023-06-22T00:37:03;30.38;;;10.07;;
81231;SDS011;70703;55.652;37.710;2023-06-22T00:37:18;32.53;;;10.68;;
81231;SDS011;70703;55.652;37.710;2023-06-22T00:37:29;31.70;;;10.55;;
81231;SDS011;70703;55.652;37.710;2023-06-22T00:37:40;30.70;;;10.27;;
81231;SDS011;70703;55.652;37.710;2023-06-22T00:37:53;26.75;;;10.02;;
81231;SDS011;70703;55.652;37.710;2023-06-22T00:38:11;24.95;;;10.05;;
81231;SDS011;70703;55.652;37.710;2023-06-22T00:38:22;23.33;;;9.85;;
81231;SDS011;70703;55.652;37.710;2023-06-22T00:38:34;23.65;;;10.40;;
81231;SDS011;70703;55.652;37.710;2023-06-22T00:38:51;30.63;;;10.48;;
81231;SDS011;70703;55.652;37.710;2023-06-22T00:39:03;30.92;;;9.93;;
81231;SDS011;70703;55.652;37.710;2023-06-22T00:39:14;27.10;;;10.35;;
81231;SDS011;70703;55.652;37.710;2023-06-22T00:39:25;28.23;;;10.38;;
81231;SDS011;70703;55.652;37.710;2023-06-22T00:39:36;23.58;;;10.23;;
81231;SDS011;70703;55.652;37.710;2023-06-22T00:39:47;23.40;;;10.00;;
81231;SDS011;70703;55.652;37.710;2023-06-22T00:39:59;22.27;;;10.15;;
81231;SDS011;70703;55.652;37.710;2023-06-22T00:40:10;29.58;;;10.18;;
81231;SDS011;70703;55.652;37.710;2023-06-22T00:40:24;31.35;;;10.20;;
81231;SDS011;70703;55.652;37.710;2023-06-22T00:40:35;33.45;;;10.18;;
81231;SDS011;70703;55.652;37.710;2023-06-22T00:40:47;29.52;;;10.13;;
81231;SDS011;70703;55.652;37.710;2023-06-22T00:40:58;25.50;;;10.02;;
81231;SDS011;70703;55.652;37.710;2023-06-22T00:41:09;25.58;;;10.02;;
81231;SDS011;70703;55.652;37.710;2023-06-22T00:41:20;26.98;;;9.88;;
81231;SDS011;70703;55.652;37.710;2023-06-22T00:41:32;29.95;;;9.95;;
81231;SDS011;70703;55.652;37.710;2023-06-22T00:41:44;31.45;;;10.18;;
81231;SDS011;70703;55.652;37.710;2023-06-22T00:41:55;29.70;;;10.45;;
81231;SDS011;70703;55.652;37.710;2023-06-22T00:42:07;28.35;;;10.18;;
81231;SDS011;70703;55.652;37.710;2023-06-22T00:42:18;27.45;;;10.30;;
81231;SDS011;70703;55.652;37.710;2023-06-22T00:42:31;26.77;;;10.05;;
81231;SDS011;70703;55.652;37.710;2023-06-22T00:42:42;26.80;;;10.20;;
81231;SDS011;70703;55.652;37.710;2023-06-22T00:42:53;25.83;;;9.85;;
81231;SDS011;70703;55.652;37.710;2023-06-22T00:43:05;25.02;;;9.65;;
81231;SDS011;70703;55.652;37.710;2023-06-22T00:43:17;23.77;;;9.57;;
81231;SDS011;70703;55.652;37.710;2023-06-22T00:43:28;25.13;;;9.70;;
81231;SDS011;70703;55.652;37.710;2023-06-22T00:43:39;29.95;;;10.23;;
81231;SDS011;70703;55.652;37.710;2023-06-22T00:43:52;27.45;;;10.27;;
81231;SDS011;70703;55.652;37.710;2023-06-22T00:44:03;27.80;;;10.18;;
81231;SDS011;70703;55.652;37.710;2023-06-22T00:44:15;28.05;;;10.45;;
81231;SDS011;70703;55.652;37.710;2023-06-22T00:44:26;29.90;;;10.45;;
81231;SDS011;70703;55.652;37.710;2023-06-22T00:44:37;31.23;;;10.23;;
81231;SDS011;70703;55.652;37.710;2023-06-22T00:44:49;32.47;;;10.02;;
81231;SDS011;70703;55.652;37.710;2023-06-22T00:45:01;29.88;;;9.88;;
81231;SDS011;70703;55.652;37.710;2023-06-22T00:45:12;27.35;;;9.82;;
81231;SDS011;70703;55.652;37.710;2023-06-22T00:45:23;26.02;;;9.40;;
81231;SDS011;70703;55.652;37.710;2023-06-22T00:45:35;26.92;;;9.90;;
81231;SDS011;70703;55.652;37.710;2023-06-22T00:45:46;28.80;;;10.15;;
81231;SDS011;70703;55.652;37.710;2023-06-22T00:46:01;26.85;;;10.10;;
81231;SDS011;70703;55.652;37.710;2023-06-22T00:46:12;27.90;;;9.98;;
81231;SDS011;70703;55.652;37.710;2023-06-22T00:46:23;25.85;;;9.90;;
81231;SDS011;70703;55.652;37.710;2023-06-22T00:46:35;24.63;;;9.93;;
81231;SDS011;70703;55.652;37.710;2023-06-22T00:46:46;23.35;;;10.25;;
81231;SDS011;70703;55.652;37.710;2023-06-22T00:46:58;25.77;;;10.45;;
81231;SDS011;70703;55.652;37.710;2023-06-22T00:47:11;26.10;;;10.70;;
81231;SDS011;70703;55.652;37.710;2023-06-22T00:47:23;27.55;;;10.57;;
81231;SDS011;70703;55.652;37.710;2023-06-22T00:47:35;26.98;;;10.35;;
81231;SDS011;70703;55.652;37.710;2023-06-22T00:47:48;26.38;;;10.07;;
81231;SDS011;70703;55.652;37.710;2023-06-22T00:47:59;27.13;;;10.18;;
81231;SDS011;70703;55.652;37.710;2023-06-22T00:48:12;33.55;;;10.43;;
81231;SDS011;70703;55.652;37.710;2023-06-22T00:48:24;35.53;;;10.43;;
81231;SDS011;70703;55.652;37.710;2023-06-22T00:48:36;32.00;;;10.15;;
81231;SDS011;70703;55.652;37.710;2023-06-22T00:48:47;25.77;;;10.15;;
81231;SDS011;70703;55.652;37.710;2023-06-22T00:48:58;27.83;;;10.60;;
81231;SDS011;70703;55.652;37.710;2023-06-22T00:49:12;28.20;;;10.57;;
81231;SDS011;70703;55.652;37.710;2023-06-22T00:49:25;24.25;;;10.05;;
81231;SDS011;70703;55.652;37.710;2023-06-22T00:49:36;24.20;;;10.00;;
81231;SDS011;70703;55.652;37.710;2023-06-22T00:49:49;24.55;;;10.10;;
81231;SDS011;70703;55.652;37.710;2023-06-22T00:50:01;25.85;;;10.23;;
81231;SDS011;70703;55.652;37.710;2023-06-22T00:50:16;27.58;;;10.18;;
81231;SDS011;70703;55.652;37.710;2023-06-22T00:50:32;28.45;;;10.57;;
81231;SDS011;70703;55.652;37.710;2023-06-22T00:50:44;28.73;;;10.77;;
81231;SDS011;70703;55.652;37.710;2023-06-22T00:51:01;27.50;;;10.32;;
81231;SDS011;70703;55.652;37.710;2023-06-22T00:51:13;28.30;;;10.30;;
81231;SDS011;70703;55.652;37.710;2023-06-22T00:51:24;28.50;;;10.50;;
81231;SDS011;70703;55.652;37.710;2023-06-22T00:51:35;29.20;;;10.18;;
81231;SDS011;70703;55.652;37.710;2023-06-22T00:51:49;28.17;;;9.75;;
81231;SDS011;70703;55.652;37.710;2023-06-22T00:52:00;30.88;;;9.70;;
81231;SDS011;70703;55.652;37.710;2023-06-22T00:52:12;32.30;;;9.80;;
81231;SDS011;70703;55.652;37.710;2023-06-22T00:52:24;29.98;;;9.65;;
81231;SDS011;70703;55.652;37.710;2023-06-22T00:52:39;27.30;;;9.73;;
81231;SDS011;70703;55.652;37.710;2023-06-22T00:52:55;26.80;;;10.00;;
81231;SDS011;70703;55.652;37.710;2023-06-22T00:53:08;24.30;;;10.23;;
81231;SDS011;70703;55.652;37.710;2023-06-22T00:53:21;26.38;;;10.15;;
81231;SDS011;70703;55.652;37.710;2023-06-22T00:53:32;30.85;;;10.43;;
81231;SDS011;70703;55.652;37.710;2023-06-22T00:53:45;36.05;;;10.43;;
81231;SDS011;70703;55.652;37.710;2023-06-22T00:53:58;31.48;;;10.23;;
81231;SDS011;70703;55.652;37.710;2023-06-22T00:54:10;29.35;;;10.45;;
81231;SDS011;70703;55.652;37.710;2023-06-22T00:54:23;46.30;;;22.38;;
81231;SDS011;70703;55.652;37.710;2023-06-22T00:54:35;49.58;;;26.25;;
81231;SDS011;70703;55.652;37.710;2023-06-22T00:54:46;52.28;;;27.38;;
81231;SDS011;70703;55.652;37.710;2023-06-22T00:54:59;39.78;;;20.10;;
81231;SDS011;70703;55.652;37.710;2023-06-22T00:55:12;31.02;;;13.60;;
81231;SDS011;70703;55.652;37.710;2023-06-22T00:55:25;30.77;;;12.52;;
81231;SDS011;70703;55.652;37.710;2023-06-22T00:55:37;29.40;;;11.18;;
81231;SDS011;70703;55.652;37.710;2023-06-22T00:55:50;26.75;;;10.82;;
81231;SDS011;70703;55.652;37.710;2023-06-22T00:56:01;25.35;;;10.45;;
81231;SDS011;70703;55.652;37.710;2023-06-22T00:56:13;28.35;;;10.27;;
81231;SDS011;70703;55.652;37.710;2023-06-22T00:56:25;28.30;;;10.15;;
81231;SDS011;70703;55.652;37.710;2023-06-22T00:56:36;27.98;;;10.13;;
81231;SDS011;70703;55.652;37.710;2023-06-22T00:56:47;27.33;;;10.40;;
81231;SDS011;70703;55.652;37.710;2023-06-22T00:56:59;26.20;;;10.35;;
81231;SDS011;70703;55.652;37.710;2023-06-22T00:57:12;28.38;;;10.25;;
81231;SDS011;70703;55.652;37.710;2023-06-22T00:57:26;28.10;;;10.27;;
81231;SDS011;70703;55.652;37.710;2023-06-22T00:57:39;26.63;;;10.38;;
81231;SDS011;70703;55.652;37.710;2023-06-22T00:57:51;26.13;;;10.43;;
81231;SDS011;70703;55.652;37.710;2023-06-22T00:58:06;31.48;;;10.82;;
81231;SDS011;70703;55.652;37.710;2023-06-22T00:58:21;29.30;;;10.82;;
81231;SDS011;70703;55.652;37.710;2023-06-22T00:58:32;27.90;;;10.70;;
81231;SDS011;70703;55.652;37.710;2023-06-22T00:58:45;27.20;;;10.40;;
81231;SDS011;70703;55.652;37.710;2023-06-22T00:58:57;24.67;;;10.32;;
81231;SDS011;70703;55.652;37.710;2023-06-22T00:59:10;23.80;;;10.07;;
81231;SDS011;70703;55.652;37.710;2023-06-22T00:59:34;25.33;;;10.48;;
81231;SDS011;70703;55.652;37.710;2023-06-22T00:59:47;26.38;;;10.13;;
81231;SDS011;70703;55.652;37.710;2023-06-22T00:59:59;22.63;;;9.98;;
81231;SDS011;70703;55.652;37.710;2023-06-22T01:00:10;22.80;;;10.25;;
81231;SDS011;70703;55.652;37.710;2023-06-22T01:00:31;25.15;;;10.43;;
81231;SDS011;70703;55.652;37.710;2023-06-22T01:00:44;22.95;;;10.18;;
81231;SDS011;70703;55.652;37.710;2023-06-22T01:01:02;24.27;;;10.38;;
81231;SDS011;70703;55.652;37.710;2023-06-22T01:01:18;30.20;;;11.02;;
81231;SDS011;70703;55.652;37.710;2023-06-22T01:01:33;33.03;;;10.77;;
81231;SDS011;70703;55.652;37.710;2023-06-22T01:01:44;33.00;;;10.15;;
81231;SDS011;70703;55.652;37.710;2023-06-22T01:01:55;26.98;;;10.23;;
81231;SDS011;70703;55.652;37.710;2023-06-22T01:02:09;24.42;;;10.48;;
81231;SDS011;70703;55.652;37.710;2023-06-22T01:02:21;26.75;;;10.80;;
81231;SDS011;70703;55.652;37.710;2023-06-22T01:02:32;28.83;;;10.82;;
81231;SDS011;70703;55.652;37.710;2023-06-22T01:02:43;33.53;;;11.10;;
81231;SDS011;70703;55.652;37.710;2023-06-22T01:02:55;36.35;;;11.25;;
81231;SDS011;70703;55.652;37.710;2023-06-22T01:03:08;31.15;;;11.00;;
81231;SDS011;70703;55.652;37.710;2023-06-22T01:03:20;30.40;;;10.88;;
81231;SDS011;70703;55.652;37.710;2023-06-22T01:03:32;28.88;;;10.68;;
81231;SDS011;70703;55.652;37.710;2023-06-22T01:03:43;31.77;;;10.80;;
81231;SDS011;70703;55.652;37.710;2023-06-22T01:03:54;31.30;;;10.50;;
81231;SDS011;70703;55.652;37.710;2023-06-22T01:04:07;30.50;;;10.63;;
81231;SDS011;70703;55.652;37.710;2023-06-22T01:04:18;28.55;;;10.50;;
81231;SDS011;70703;55.652;37.710;2023-06-22T01:04:34;27.35;;;10.73;;
81231;SDS011;70703;55.652;37.710;2023-06-22T01:04:46;28.63;;;10.57;;
81231;SDS011;70703;55.652;37.710;2023-06-22T01:04:57;29.38;;;10.40;;
81231;SDS011;70703;55.652;37.710;2023-06-22T01:05:09;25.40;;;10.35;;
81231;SDS011;70703;55.652;37.710;2023-06-22T01:05:21;26.20;;;10.52;;
81231;SDS011;70703;55.652;37.710;2023-06-22T01:05:32;25.33;;;10.85;;
81231;SDS011;70703;55.652;37.710;2023-06-22T01:05:45;27.08;;;10.63;;
81231;SDS011;70703;55.652;37.710;2023-06-22T01:05:59;27.10;;;10.43;;
81231;SDS011;70703;55.652;37.710;2023-06-22T01:06:21;31.35;;;10.77;;
81231;SDS011;70703;55.652;37.710;2023-06-22T01:06:39;29.13;;;10.73;;
81231;SDS011;70703;55.652;37.710;2023-06-22T01:07:09;45.80;;;12.75;;
81231;SDS011;70703;55.652;37.710;2023-06-22T01:07:30;43.53;;;11.80;;
81231;SDS011;70703;55.652;37.710;2023-06-22T01:07:48;37.13;;;10.98;;
81231;SDS011;70703;55.652;37.710;2023-06-22T01:08:12;31.17;;;10.70;;
81231;SDS011;70703;55.652;37.710;2023-06-22T01:08:33;29.63;;;11.25;;
81231;SDS011;70703;55.652;37.710;2023-06-22T01:09:02;24.70;;;10.73;;
81231;SDS011;70703;55.652;37.710;2023-06-22T01:09:22;29.98;;;10.68;;
81231;SDS011;70703;55.652;37.710;2023-06-22T01:09:41;35.83;;;10.50;;
81231;SDS011;70703;55.652;37.710;2023-06-22T01:10:02;30.20;;;10.32;;
81231;SDS011;70703;55.652;37.710;2023-06-22T01:10:18;27.77;;;10.27;;
81231;SDS011;70703;55.652;37.710;2023-06-22T01:10:38;30.35;;;10.88;;
81231;SDS011;70703;55.652;37.710;2023-06-22T01:10:54;32.65;;;11.02;;
81231;SDS011;70703;55.652;37.710;2023-06-22T01:11:12;29.77;;;11.32;;
81231;SDS011;70703;55.652;37.710;2023-06-22T01:11:31;28.25;;;10.95;;
81231;SDS011;70703;55.652;37.710;2023-06-22T01:11:47;31.73;;;10.88;;
81231;SDS011;70703;55.652;37.710;2023-06-22T01:12:06;30.73;;;11.07;;